sensor_id;sensor_type;location;lat;lon;timestamp;pressure;altitude;pressure_sealevel;temperature;humidity
14041;BME280;7095;51.388;6.196;2023-12-28T00:01:56;53894.75;;;-145.32;100.00
14041;BME280;7095;51.388;6.196;2023-12-28T00:04:25;53900.72;;;-145.32;100.00
14041;BME280;7095;51.388;6.196;2023-12-28T00:06:55;53940.47;;;-145.32;100.00
14041;BME280;7095;51.388;6.196;2023-12-28T00:09:23;53976.28;;;-145.32;100.00
14041;BME280;7095;51.388;6.196;2023-12-28T00:11:52;54006.09;;;-145.32;100.00
14041;BME280;7095;51.388;6.196;2023-12-28T00:14:22;54029.97;;;-145.32;100.00
14041;BME280;7095;51.388;6.196;2023-12-28T00:16:50;54039.91;;;-145.32;100.00
14041;BME280;7095;51.388;6.196;2023-12-28T00:19:19;54069.72;;;-145.32;100.00
14041;BME280;7095;51.388;6.196;2023-12-28T00:21:48;54055.81;;;-145.32;100.00
14041;BME280;7095;51.388;6.196;2023-12-28T00:24:20;54081.66;;;-145.32;100.00
14041;BME280;7095;51.388;6.196;2023-12-28T00:26:49;54059.78;;;-145.32;100.00
14041;BME280;7095;51.388;6.196;2023-12-28T00:29:18;54089.59;;;-145.32;100.00
14041;BME280;7095;51.388;6.196;2023-12-28T00:31:48;54087.63;;;-145.32;100.00
14041;BME280;7095;51.388;6.196;2023-12-28T00:34:16;54107.50;;;-145.32;100.00
14041;BME280;7095;51.388;6.196;2023-12-28T00:36:45;54119.44;;;-145.32;100.00
14041;BME280;7095;51.388;6.196;2023-12-28T00:39:13;54123.41;;;-145.32;100.00
14041;BME280;7095;51.388;6.196;2023-12-28T00:41:42;54107.50;;;-145.32;100.00
14041;BME280;7095;51.388;6.196;2023-12-28T00:44:10;54169.16;;;-145.32;100.00
14041;BME280;7095;51.388;6.196;2023-12-28T00:46:39;54165.16;;;-145.32;100.00
14041;BME280;7095;51.388;6.196;2023-12-28T00:49:09;54163.19;;;-145.32;100.00
14041;BME280;7095;51.388;6.196;2023-12-28T00:51:37;54153.25;;;-145.32;100.00
14041;BME280;7095;51.388;6.196;2023-12-28T00:54:06;54202.94;;;-145.32;100.00
14041;BME280;7095;51.388;6.196;2023-12-28T00:56:35;54179.09;;;-145.32;100.00
14041;BME280;7095;51.388;6.196;2023-12-28T00:59:03;54230.78;;;-145.32;100.00
14041;BME280;7095;51.388;6.196;2023-12-28T01:01:32;54294.41;;;-145.32;100.00
14041;BME280;7095;51.388;6.196;2023-12-28T01:04:00;54310.34;;;-145.32;100.00
14041;BME280;7095;51.388;6.196;2023-12-28T01:06:31;54266.59;;;-145.32;100.00
14041;BME280;7095;51.388;6.196;2023-12-28T01:08:59;54310.34;;;-145.32;100.00
14041;BME280;7095;51.388;6.196;2023-12-28T01:11:28;54318.28;;;-145.32;100.00
14041;BME280;7095;51.388;6.196;2023-12-28T01:13:56;54324.25;;;-145.32;100.00
14041;BME280;7095;51.388;6.196;2023-12-28T01:16:26;54314.31;;;-145.32;100.00
14041;BME280;7095;51.388;6.196;2023-12-28T01:18:54;54379.94;;;-145.32;100.00
14041;BME280;7095;51.388;6.196;2023-12-28T01:21:23;54421.69;;;-145.32;100.00
14041;BME280;7095;51.388;6.196;2023-12-28T01:23:54;54455.50;;;-145.32;100.00
14041;BME280;7095;51.388;6.196;2023-12-28T01:26:23;54485.31;;;-145.32;100.00
14041;BME280;7095;51.388;6.196;2023-12-28T01:28:52;54548.97;;;-145.32;100.00
14041;BME280;7095;51.388;6.196;2023-12-28T01:31:20;54562.88;;;-145.32;100.00
14041;BME280;7095;51.388;6.196;2023-12-28T01:33:49;54576.81;;;-145.32;100.00
14041;BME280;7095;51.388;6.196;2023-12-28T01:36:18;54628.50;;;-145.32;100.00
14041;BME280;7095;51.388;6.196;2023-12-28T01:38:47;54674.25;;;-145.32;100.00
14041;BME280;7095;51.388;6.196;2023-12-28T01:41:17;54660.31;;;-145.32;100.00
14041;BME280;7095;51.388;6.196;2023-12-28T01:43:46;54725.97;;;-145.32;100.00
14041;BME280;7095;51.388;6.196;2023-12-28T01:46:16;54811.47;;;-145.32;100.00
14041;BME280;7095;51.388;6.196;2023-12-28T01:48:47;54859.22;;;-145.32;100.00
14041;BME280;7095;51.388;6.196;2023-12-28T01:51:19;54861.19;;;-145.32;100.00
14041;BME280;7095;51.388;6.196;2023-12-28T01:53:49;54918.88;;;-145.32;100.00
14041;BME280;7095;51.388;6.196;2023-12-28T01:56:21;55028.25;;;-145.32;100.00
14041;BME280;7095;51.388;6.196;2023-12-28T01:58:50;55030.25;;;-145.32;100.00
14041;BME280;7095;51.388;6.196;2023-12-28T02:01:20;55155.56;;;-145.32;100.00
14041;BME280;7095;51.388;6.196;2023-12-28T02:03:49;55165.50;;;-145.32;100.00
14041;BME280;7095;51.388;6.196;2023-12-28T02:06:18;55324.63;;;-145.32;100.00
14041;BME280;7095;51.388;6.196;2023-12-28T02:08:48;55302.75;;;-145.32;100.00
14041;BME280;7095;51.388;6.196;2023-12-28T02:11:20;55350.50;;;-145.32;100.00
14041;BME280;7095;51.388;6.196;2023-12-28T02:13:49;55507.63;;;-145.32;100.00
14041;BME280;7095;51.388;6.196;2023-12-28T02:16:23;55595.16;;;-145.32;100.00
14041;BME280;7095;51.388;6.196;2023-12-28T02:18:56;55676.72;;;-145.32;100.00
14041;BME280;7095;51.388;6.196;2023-12-28T02:21:27;55704.59;;;-145.32;100.00
14041;BME280;7095;51.388;6.196;2023-12-28T02:23:56;55804.06;;;-145.32;100.00
14041;BME280;7095;51.388;6.196;2023-12-28T02:26:26;55933.38;;;-145.32;100.00
14041;BME280;7095;51.388;6.196;2023-12-28T02:28:55;55913.47;;;-145.32;100.00
14041;BME280;7095;51.388;6.196;2023-12-28T02:31:27;56034.81;;;-145.32;100.00
14041;BME280;7095;51.388;6.196;2023-12-28T02:34:05;56215.88;;;-145.32;100.00
14041;BME280;7095;51.388;6.196;2023-12-28T02:36:36;56295.47;;;-145.32;100.00
14041;BME280;7095;51.388;6.196;2023-12-28T02:39:06;56307.41;;;-145.32;100.00
14041;BME280;7095;51.388;6.196;2023-12-28T02:41:37;56192.00;;;-145.32;100.00
14041;BME280;7095;51.388;6.196;2023-12-28T02:44:07;56188.03;;;-145.32;100.00
14041;BME280;7095;51.388;6.196;2023-12-28T02:46:35;56281.53;;;-145.32;100.00
14041;BME280;7095;51.388;6.196;2023-12-28T02:49:04;56426.78;;;-145.32;100.00
14041;BME280;7095;51.388;6.196;2023-12-28T02:51:32;56526.28;;;-145.32;100.00
14041;BME280;7095;51.388;6.196;2023-12-28T02:54:03;56514.34;;;-145.32;100.00
14041;BME280;7095;51.388;6.196;2023-12-28T02:56:31;56585.97;;;-145.32;100.00
14041;BME280;7095;51.388;6.196;2023-12-28T02:59:01;56659.59;;;-145.32;100.00
14041;BME280;7095;51.388;6.196;2023-12-28T03:01:30;56715.31;;;-145.32;100.00
14041;BME280;7095;51.388;6.196;2023-12-28T03:03:59;56828.75;;;-145.32;100.00
14041;BME280;7095;51.388;6.196;2023-12-28T03:06:27;56796.91;;;-145.32;100.00
14041;BME280;7095;51.388;6.196;2023-12-28T03:08:56;56900.41;;;-145.32;100.00
14041;BME280;7095;51.388;6.196;2023-12-28T03:11:24;56999.91;;;-145.32;100.00
14041;BME280;7095;51.388;6.196;2023-12-28T03:13:54;57095.44;;;-145.32;100.00
14041;BME280;7095;51.388;6.196;2023-12-28T03:16:24;57055.63;;;-145.32;100.00
14041;BME280;7095;51.388;6.196;2023-12-28T03:18:52;57093.44;;;-145.32;100.00
14041;BME280;7095;51.388;6.196;2023-12-28T03:21:21;57316.34;;;-145.32;100.00
14041;BME280;7095;51.388;6.196;2023-12-28T03:23:49;57161.09;;;-145.32;100.00
14041;BME280;7095;51.388;6.196;2023-12-28T03:26:18;57346.19;;;-145.32;100.00
14041;BME280;7095;51.388;6.196;2023-12-28T03:28:46;57103.38;;;-145.32;100.00
14041;BME280;7095;51.388;6.196;2023-12-28T03:31:15;57183.00;;;-145.32;100.00
14041;BME280;7095;51.388;6.196;2023-12-28T03:33:45;57155.13;;;-145.32;100.00
14041;BME280;7095;51.388;6.196;2023-12-28T03:36:18;57125.28;;;-145.32;100.00
14041;BME280;7095;51.388;6.196;2023-12-28T03:38:47;57389.97;;;-145.32;100.00
14041;BME280;7095;51.388;6.196;2023-12-28T03:41:17;57260.63;;;-145.32;100.00
14041;BME280;7095;51.388;6.196;2023-12-28T03:43:46;57354.16;;;-145.32;100.00
14041;BME280;7095;51.388;6.196;2023-12-28T03:46:15;57497.47;;;-145.32;100.00
14041;BME280;7095;51.388;6.196;2023-12-28T03:48:45;57614.91;;;-145.32;100.00
14041;BME280;7095;51.388;6.196;2023-12-28T03:51:13;57622.84;;;-145.32;100.00
14041;BME280;7095;51.388;6.196;2023-12-28T03:53:42;57587.03;;;-145.32;100.00
14041;BME280;7095;51.388;6.196;2023-12-28T03:56:19;57453.69;;;-145.32;100.00
14041;BME280;7095;51.388;6.196;2023-12-28T03:58:47;57411.88;;;-145.32;100.00
14041;BME280;7095;51.388;6.196;2023-12-28T04:01:16;57471.59;;;-145.32;100.00
14041;BME280;7095;51.388;6.196;2023-12-28T04:03:47;57326.28;;;-145.32;100.00
14041;BME280;7095;51.388;6.196;2023-12-28T04:06:16;57252.66;;;-145.32;100.00
14041;BME280;7095;51.388;6.196;2023-12-28T04:08:44;57214.84;;;-145.32;100.00
14041;BME280;7095;51.388;6.196;2023-12-28T04:11:13;57370.09;;;-145.32;100.00
14041;BME280;7095;51.388;6.196;2023-12-28T04:13:41;57441.72;;;-145.32;100.00
14041;BME280;7095;51.388;6.196;2023-12-28T04:16:12;57525.31;;;-145.32;100.00
14041;BME280;7095;51.388;6.196;2023-12-28T04:18:41;57382.03;;;-145.32;100.00
14041;BME280;7095;51.388;6.196;2023-12-28T04:21:12;57827.88;;;-145.32;100.00
14041;BME280;7095;51.388;6.196;2023-12-28T04:23:41;57654.72;;;-145.32;100.00
14041;BME280;7095;51.388;6.196;2023-12-28T04:26:10;57664.66;;;-145.32;100.00
14041;BME280;7095;51.388;6.196;2023-12-28T04:28:39;57716.41;;;-145.32;100.00
14041;BME280;7095;51.388;6.196;2023-12-28T04:31:07;57640.78;;;-145.32;100.00
14041;BME280;7095;51.388;6.196;2023-12-28T04:33:36;57853.75;;;-145.32;100.00
14041;BME280;7095;51.388;6.196;2023-12-28T04:36:05;57800.03;;;-145.32;100.00
14041;BME280;7095;51.388;6.196;2023-12-28T04:38:36;57489.50;;;-145.32;100.00
14041;BME280;7095;51.388;6.196;2023-12-28T04:41:06;57356.16;;;-145.32;100.00
14041;BME280;7095;51.388;6.196;2023-12-28T04:43:34;57417.84;;;-145.32;100.00
14041;BME280;7095;51.388;6.196;2023-12-28T04:46:03;57232.75;;;-145.32;100.00
14041;BME280;7095;51.388;6.196;2023-12-28T04:48:32;56982.00;;;-145.32;100.00
14041;BME280;7095;51.388;6.196;2023-12-28T04:51:04;57005.88;;;-145.32;100.00
14041;BME280;7095;51.388;6.196;2023-12-28T04:53:32;56747.16;;;-145.32;100.00
14041;BME280;7095;51.388;6.196;2023-12-28T04:56:04;56908.34;;;-145.32;100.00
14041;BME280;7095;51.388;6.196;2023-12-28T04:58:32;56997.91;;;-145.32;100.00
14041;BME280;7095;51.388;6.196;2023-12-28T05:01:01;56874.53;;;-145.32;100.00
14041;BME280;7095;51.388;6.196;2023-12-28T05:03:30;56510.38;;;-145.32;100.00
14041;BME280;7095;51.388;6.196;2023-12-28T05:05:58;56508.38;;;-145.32;100.00
14041;BME280;7095;51.388;6.196;2023-12-28T05:08:30;56301.44;;;-145.32;100.00
14041;BME280;7095;51.388;6.196;2023-12-28T05:10:58;56379.03;;;-145.32;100.00
14041;BME280;7095;51.388;6.196;2023-12-28T05:13:28;56327.31;;;-145.32;100.00
14041;BME280;7095;51.388;6.196;2023-12-28T05:15:57;56394.97;;;-145.32;100.00
14041;BME280;7095;51.388;6.196;2023-12-28T05:18:26;56088.53;;;-145.32;100.00
14041;BME280;7095;51.388;6.196;2023-12-28T05:20:55;55989.06;;;-145.32;100.00
14041;BME280;7095;51.388;6.196;2023-12-28T05:23:23;56036.81;;;-145.32;100.00
14041;BME280;7095;51.388;6.196;2023-12-28T05:25:52;55881.63;;;-145.32;100.00
14041;BME280;7095;51.388;6.196;2023-12-28T05:28:20;55885.63;;;-145.32;100.00
14041;BME280;7095;51.388;6.196;2023-12-28T05:30:50;55632.97;;;-145.32;100.00
14041;BME280;7095;51.388;6.196;2023-12-28T05:33:19;55794.09;;;-145.32;100.00
14041;BME280;7095;51.388;6.196;2023-12-28T05:35:48;55788.13;;;-145.32;100.00
14041;BME280;7095;51.388;6.196;2023-12-28T05:38:16;55678.72;;;-145.32;100.00
14041;BME280;7095;51.388;6.196;2023-12-28T05:40:45;55702.59;;;-145.32;100.00
14041;BME280;7095;51.388;6.196;2023-12-28T05:43:13;55698.63;;;-145.32;100.00
14041;BME280;7095;51.388;6.196;2023-12-28T05:45:42;55806.03;;;-145.32;100.00
14041;BME280;7095;51.388;6.196;2023-12-28T05:48:12;55885.63;;;-145.32;100.00
14041;BME280;7095;51.388;6.196;2023-12-28T05:50:41;55694.63;;;-145.32;100.00
14041;BME280;7095;51.388;6.196;2023-12-28T05:53:09;55436.03;;;-145.32;100.00
14041;BME280;7095;51.388;6.196;2023-12-28T05:55:41;55545.44;;;-145.32;100.00
14041;BME280;7095;51.388;6.196;2023-12-28T05:58:10;55378.34;;;-145.32;100.00
14041;BME280;7095;51.388;6.196;2023-12-28T06:00:38;55428.06;;;-145.32;100.00
14041;BME280;7095;51.388;6.196;2023-12-28T06:03:07;55197.34;;;-145.32;100.00
14041;BME280;7095;51.388;6.196;2023-12-28T06:05:37;55157.56;;;-145.32;100.00
14041;BME280;7095;51.388;6.196;2023-12-28T06:08:05;55181.41;;;-145.32;100.00
14041;BME280;7095;51.388;6.196;2023-12-28T06:10:34;55109.81;;;-145.32;100.00
14041;BME280;7095;51.388;6.196;2023-12-28T06:13:03;55111.81;;;-145.32;100.00
14041;BME280;7095;51.388;6.196;2023-12-28T06:15:32;55079.97;;;-145.32;100.00
14041;BME280;7095;51.388;6.196;2023-12-28T06:18:01;54950.69;;;-145.32;100.00
14041;BME280;7095;51.388;6.196;2023-12-28T06:20:31;54954.69;;;-145.32;100.00
14041;BME280;7095;51.388;6.196;2023-12-28T06:23:01;54928.81;;;-145.32;100.00
14041;BME280;7095;51.388;6.196;2023-12-28T06:25:29;54950.69;;;-145.32;100.00
14041;BME280;7095;51.388;6.196;2023-12-28T06:27:58;54958.66;;;-145.32;100.00
14041;BME280;7095;51.388;6.196;2023-12-28T06:30:27;55026.28;;;-145.32;100.00
14041;BME280;7095;51.388;6.196;2023-12-28T06:32:56;54910.91;;;-145.32;100.00
14041;BME280;7095;51.388;6.196;2023-12-28T06:35:25;54881.09;;;-145.32;100.00
14041;BME280;7095;51.388;6.196;2023-12-28T06:37:53;54799.53;;;-145.32;100.00
14041;BME280;7095;51.388;6.196;2023-12-28T06:40:24;54803.53;;;-145.32;100.00
14041;BME280;7095;51.388;6.196;2023-12-28T06:42:52;54761.75;;;-145.32;100.00
14041;BME280;7095;51.388;6.196;2023-12-28T06:45:20;54745.84;;;-145.32;100.00
14041;BME280;7095;51.388;6.196;2023-12-28T06:47:54;54771.69;;;-145.32;100.00
14041;BME280;7095;51.388;6.196;2023-12-28T06:50:23;54733.91;;;-145.32;100.00
14041;BME280;7095;51.388;6.196;2023-12-28T06:52:51;54731.94;;;-145.32;100.00
14041;BME280;7095;51.388;6.196;2023-12-28T06:55:20;54632.50;;;-145.32;100.00
14041;BME280;7095;51.388;6.196;2023-12-28T06:57:50;54616.56;;;-145.32;100.00
14041;BME280;7095;51.388;6.196;2023-12-28T07:00:19;54596.69;;;-145.32;100.00
14041;BME280;7095;51.388;6.196;2023-12-28T07:02:47;54600.66;;;-145.32;100.00
14041;BME280;7095;51.388;6.196;2023-12-28T07:05:16;54576.81;;;-145.32;100.00
14041;BME280;7095;51.388;6.196;2023-12-28T07:07:44;54604.66;;;-145.32;100.00
14041;BME280;7095;51.388;6.196;2023-12-28T07:10:14;54572.81;;;-145.32;100.00
14041;BME280;7095;51.388;6.196;2023-12-28T07:12:42;54560.91;;;-145.32;100.00
14041;BME280;7095;51.388;6.196;2023-12-28T07:15:12;54481.34;;;-145.32;100.00
14041;BME280;7095;51.388;6.196;2023-12-28T07:17:41;54572.81;;;-145.32;100.00
14041;BME280;7095;51.388;6.196;2023-12-28T07:20:10;54477.38;;;-145.32;100.00
14041;BME280;7095;51.388;6.196;2023-12-28T07:22:39;54503.22;;;-145.32;100.00
14041;BME280;7095;51.388;6.196;2023-12-28T07:25:08;54493.28;;;-145.32;100.00
14041;BME280;7095;51.388;6.196;2023-12-28T07:27:37;54499.25;;;-145.32;100.00
14041;BME280;7095;51.388;6.196;2023-12-28T07:30:06;54453.50;;;-145.32;100.00
14041;BME280;7095;51.388;6.196;2023-12-28T07:32:37;54511.19;;;-145.32;100.00
14041;BME280;7095;51.388;6.196;2023-12-28T07:35:05;54417.72;;;-145.32;100.00
14041;BME280;7095;51.388;6.196;2023-12-28T07:37:34;54425.66;;;-145.32;100.00
14041;BME280;7095;51.388;6.196;2023-12-28T07:40:03;54467.44;;;-145.32;100.00
14041;BME280;7095;51.388;6.196;2023-12-28T07:42:32;54445.56;;;-145.32;100.00
14041;BME280;7095;51.388;6.196;2023-12-28T07:45:01;54465.44;;;-145.32;100.00
14041;BME280;7095;51.388;6.196;2023-12-28T07:47:29;54393.84;;;-145.32;100.00
14041;BME280;7095;51.388;6.196;2023-12-28T07:49:59;54366.00;;;-145.32;100.00
14041;BME280;7095;51.388;6.196;2023-12-28T07:52:29;54362.03;;;-145.32;100.00
14041;BME280;7095;51.388;6.196;2023-12-28T07:54:58;54413.72;;;-145.32;100.00
14041;BME280;7095;51.388;6.196;2023-12-28T07:57:26;54457.47;;;-145.32;100.00
14041;BME280;7095;51.388;6.196;2023-12-28T07:59:55;54439.59;;;-145.32;100.00
14041;BME280;7095;51.388;6.196;2023-12-28T08:02:24;54334.19;;;-145.32;100.00
14041;BME280;7095;51.388;6.196;2023-12-28T08:04:52;54338.16;;;-145.32;100.00
14041;BME280;7095;51.388;6.196;2023-12-28T08:07:22;54290.44;;;-145.32;100.00
14041;BME280;7095;51.388;6.196;2023-12-28T08:09:50;54294.41;;;-145.32;100.00
14041;BME280;7095;51.388;6.196;2023-12-28T08:12:19;54328.22;;;-145.32;100.00
14041;BME280;7095;51.388;6.196;2023-12-28T08:14:48;54290.44;;;-145.32;100.00
14041;BME280;7095;51.388;6.196;2023-12-28T08:17:16;54298.41;;;-145.32;100.00
14041;BME280;7095;51.388;6.196;2023-12-28T08:19:45;54322.25;;;-145.32;100.00
14041;BME280;7095;51.388;6.196;2023-12-28T08:22:14;54246.69;;;-145.32;100.00
14041;BME280;7095;51.388;6.196;2023-12-28T08:24:44;54270.56;;;-145.32;100.00
14041;BME280;7095;51.388;6.196;2023-12-28T08:27:12;54250.69;;;-145.32;100.00
14041;BME280;7095;51.388;6.196;2023-12-28T08:29:41;54290.44;;;-145.32;100.00
14041;BME280;7095;51.388;6.196;2023-12-28T08:32:10;54238.75;;;-145.32;100.00
14041;BME280;7095;51.388;6.196;2023-12-28T08:34:39;54195.00;;;-145.32;100.00
14041;BME280;7095;51.388;6.196;2023-12-28T08:37:09;54226.81;;;-145.32;100.00
14041;BME280;7095;51.388;6.196;2023-12-28T08:39:39;54169.16;;;-145.32;100.00
14041;BME280;7095;51.388;6.196;2023-12-28T08:42:09;54191.03;;;-145.32;100.00
14041;BME280;7095;51.388;6.196;2023-12-28T08:44:37;54238.75;;;-145.32;100.00
14041;BME280;7095;51.388;6.196;2023-12-28T08:47:06;54183.06;;;-145.32;100.00
14041;BME280;7095;51.388;6.196;2023-12-28T08:49:35;54169.16;;;-145.32;100.00
14041;BME280;7095;51.388;6.196;2023-12-28T08:52:04;54202.94;;;-145.32;100.00
14041;BME280;7095;51.388;6.196;2023-12-28T08:54:32;54202.94;;;-145.32;100.00
14041;BME280;7095;51.388;6.196;2023-12-28T08:57:01;54169.16;;;-145.32;100.00
14041;BME280;7095;51.388;6.196;2023-12-28T08:59:31;54153.25;;;-145.32;100.00
14041;BME280;7095;51.388;6.196;2023-12-28T09:01:59;54131.38;;;-145.32;100.00
14041;BME280;7095;51.388;6.196;2023-12-28T09:04:28;54107.50;;;-145.32;100.00
14041;BME280;7095;51.388;6.196;2023-12-28T09:06:57;54115.47;;;-145.32;100.00
14041;BME280;7095;51.388;6.196;2023-12-28T09:09:25;54093.59;;;-145.32;100.00
14041;BME280;7095;51.388;6.196;2023-12-28T09:11:54;54067.75;;;-145.32;100.00
14041;BME280;7095;51.388;6.196;2023-12-28T09:14:23;54027.97;;;-145.32;100.00
14041;BME280;7095;51.388;6.196;2023-12-28T09:16:53;54053.81;;;-145.32;100.00
14041;BME280;7095;51.388;6.196;2023-12-28T09:19:21;54006.09;;;-145.32;100.00
14041;BME280;7095;51.388;6.196;2023-12-28T09:21:50;53988.19;;;-145.32;100.00
14041;BME280;7095;51.388;6.196;2023-12-28T09:24:19;53988.19;;;-145.32;100.00
14041;BME280;7095;51.388;6.196;2023-12-28T09:26:47;53988.19;;;-145.32;100.00
14041;BME280;7095;51.388;6.196;2023-12-28T09:29:16;53948.44;;;-145.32;100.00
14041;BME280;7095;51.388;6.196;2023-12-28T09:31:45;53912.66;;;-145.32;100.00
14041;BME280;7095;51.388;6.196;2023-12-28T09:34:17;53908.66;;;-145.32;100.00
14041;BME280;7095;51.388;6.196;2023-12-28T09:36:46;53926.56;;;-145.32;100.00
14041;BME280;7095;51.388;6.196;2023-12-28T09:39:14;53892.75;;;-145.32;100.00
14041;BME280;7095;51.388;6.196;2023-12-28T09:41:47;53851.00;;;-145.32;100.00
14041;BME280;7095;51.388;6.196;2023-12-28T09:44:17;53856.97;;;-145.32;100.00
14041;BME280;7095;51.388;6.196;2023-12-28T09:46:46;53833.13;;;-145.32;100.00
14041;BME280;7095;51.388;6.196;2023-12-28T09:49:17;53837.09;;;-145.32;100.00
14041;BME280;7095;51.388;6.196;2023-12-28T09:51:46;53851.00;;;-145.32;100.00
14041;BME280;7095;51.388;6.196;2023-12-28T09:54:15;53809.25;;;-145.32;100.00
14041;BME280;7095;51.388;6.196;2023-12-28T09:56:48;53815.22;;;-145.32;100.00
14041;BME280;7095;51.388;6.196;2023-12-28T09:59:17;53779.44;;;-145.32;100.00
14041;BME280;7095;51.388;6.196;2023-12-28T10:01:49;53787.38;;;-145.32;100.00
14041;BME280;7095;51.388;6.196;2023-12-28T10:04:19;53783.41;;;-145.32;100.00
14041;BME280;7095;51.388;6.196;2023-12-28T10:06:48;53777.44;;;-145.32;100.00
14041;BME280;7095;51.388;6.196;2023-12-28T10:09:18;53761.53;;;-145.32;100.00
14041;BME280;7095;51.388;6.196;2023-12-28T10:11:47;53749.59;;;-145.32;100.00
14041;BME280;7095;51.388;6.196;2023-12-28T10:14:16;53733.69;;;-145.32;100.00
14041;BME280;7095;51.388;6.196;2023-12-28T10:16:46;53729.72;;;-145.32;100.00
14041;BME280;7095;51.388;6.196;2023-12-28T10:19:22;53697.91;;;-145.32;100.00
14041;BME280;7095;51.388;6.196;2023-12-28T10:21:51;53737.69;;;-145.32;100.00
14041;BME280;7095;51.388;6.196;2023-12-28T10:24:20;53723.75;;;-145.32;100.00
14041;BME280;7095;51.388;6.196;2023-12-28T10:26:49;53725.75;;;-145.32;100.00
14041;BME280;7095;51.388;6.196;2023-12-28T10:29:18;53723.75;;;-145.32;100.00
14041;BME280;7095;51.388;6.196;2023-12-28T10:31:47;53670.09;;;-145.32;100.00
14041;BME280;7095;51.388;6.196;2023-12-28T10:34:19;53687.97;;;-145.32;100.00
14041;BME280;7095;51.388;6.196;2023-12-28T10:36:50;53703.88;;;-145.32;100.00
14041;BME280;7095;51.388;6.196;2023-12-28T10:39:20;53662.13;;;-145.32;100.00
14041;BME280;7095;51.388;6.196;2023-12-28T10:41:49;53707.84;;;-145.32;100.00
14041;BME280;7095;51.388;6.196;2023-12-28T10:44:20;53658.16;;;-145.32;100.00
14041;BME280;7095;51.388;6.196;2023-12-28T10:46:55;53672.06;;;-145.32;100.00
14041;BME280;7095;51.388;6.196;2023-12-28T10:49:25;53666.09;;;-145.32;100.00
14041;BME280;7095;51.388;6.196;2023-12-28T10:51:55;53678.03;;;-145.32;100.00
14041;BME280;7095;51.388;6.196;2023-12-28T10:54:36;53664.13;;;-145.32;100.00
14041;BME280;7095;51.388;6.196;2023-12-28T10:57:11;53660.13;;;-145.32;100.00
14041;BME280;7095;51.388;6.196;2023-12-28T10:59:50;53674.06;;;-145.32;100.00
14041;BME280;7095;51.388;6.196;2023-12-28T11:02:24;53656.16;;;-145.32;100.00
14041;BME280;7095;51.388;6.196;2023-12-28T11:04:55;53686.00;;;-145.32;100.00
14041;BME280;7095;51.388;6.196;2023-12-28T11:07:27;53695.94;;;-145.32;100.00
14041;BME280;7095;51.388;6.196;2023-12-28T11:10:00;53701.88;;;-145.32;100.00
14041;BME280;7095;51.388;6.196;2023-12-28T11:12:32;53678.03;;;-145.32;100.00
14041;BME280;7095;51.388;6.196;2023-12-28T11:15:01;53697.91;;;-145.32;100.00
14041;BME280;7095;51.388;6.196;2023-12-28T11:17:35;53678.03;;;-145.32;100.00
14041;BME280;7095;51.388;6.196;2023-12-28T11:20:07;53678.03;;;-145.32;100.00
14041;BME280;7095;51.388;6.196;2023-12-28T11:22:39;53670.09;;;-145.32;100.00
14041;BME280;7095;51.388;6.196;2023-12-28T11:25:14;53666.09;;;-145.32;100.00
14041;BME280;7095;51.388;6.196;2023-12-28T11:27:43;53678.03;;;-145.32;100.00
14041;BME280;7095;51.388;6.196;2023-12-28T11:30:13;53682.00;;;-145.32;100.00
14041;BME280;7095;51.388;6.196;2023-12-28T11:32:43;53656.16;;;-145.32;100.00
14041;BME280;7095;51.388;6.196;2023-12-28T11:35:12;53678.03;;;-145.32;100.00
14041;BME280;7095;51.388;6.196;2023-12-28T11:37:46;53686.00;;;-145.32;100.00
14041;BME280;7095;51.388;6.196;2023-12-28T11:40:17;53678.03;;;-145.32;100.00
14041;BME280;7095;51.388;6.196;2023-12-28T11:42:50;53707.84;;;-145.32;100.00
14041;BME280;7095;51.388;6.196;2023-12-28T11:45:20;53666.09;;;-145.32;100.00
14041;BME280;7095;51.388;6.196;2023-12-28T11:47:58;53638.28;;;-145.32;100.00
14041;BME280;7095;51.388;6.196;2023-12-28T11:50:28;53697.91;;;-145.32;100.00
14041;BME280;7095;51.388;6.196;2023-12-28T11:52:58;53646.22;;;-145.32;100.00
14041;BME280;7095;51.388;6.196;2023-12-28T11:55:27;53636.28;;;-145.32;100.00
14041;BME280;7095;51.388;6.196;2023-12-28T11:57:55;53648.22;;;-145.32;100.00
14041;BME280;7095;51.388;6.196;2023-12-28T12:00:24;53658.16;;;-145.32;100.00
14041;BME280;7095;51.388;6.196;2023-12-28T12:02:53;53624.34;;;-145.32;100.00
14041;BME280;7095;51.388;6.196;2023-12-28T12:05:23;53666.09;;;-145.32;100.00
14041;BME280;7095;51.388;6.196;2023-12-28T12:07:52;53646.22;;;-145.32;100.00
14041;BME280;7095;51.388;6.196;2023-12-28T12:10:22;53638.28;;;-145.32;100.00
14041;BME280;7095;51.388;6.196;2023-12-28T12:12:51;53598.50;;;-145.32;100.00
14041;BME280;7095;51.388;6.196;2023-12-28T12:15:20;53628.31;;;-145.32;100.00
14041;BME280;7095;51.388;6.196;2023-12-28T12:17:49;53598.50;;;-145.32;100.00
14041;BME280;7095;51.388;6.196;2023-12-28T12:20:19;53616.41;;;-145.32;100.00
14041;BME280;7095;51.388;6.196;2023-12-28T12:22:48;53566.69;;;-145.32;100.00
14041;BME280;7095;51.388;6.196;2023-12-28T12:25:17;53584.59;;;-145.32;100.00
14041;BME280;7095;51.388;6.196;2023-12-28T12:27:48;53582.59;;;-145.32;100.00
14041;BME280;7095;51.388;6.196;2023-12-28T12:30:17;53572.66;;;-145.32;100.00
14041;BME280;7095;51.388;6.196;2023-12-28T12:32:46;53560.72;;;-145.32;100.00
14041;BME280;7095;51.388;6.196;2023-12-28T12:35:15;53588.56;;;-145.32;100.00
14041;BME280;7095;51.388;6.196;2023-12-28T12:37:45;53590.56;;;-145.32;100.00
14041;BME280;7095;51.388;6.196;2023-12-28T12:40:17;53590.56;;;-145.32;100.00
14041;BME280;7095;51.388;6.196;2023-12-28T12:42:53;53582.59;;;-145.32;100.00
14041;BME280;7095;51.388;6.196;2023-12-28T12:45:22;53604.47;;;-145.32;100.00
14041;BME280;7095;51.388;6.196;2023-12-28T12:47:52;53576.63;;;-145.32;100.00
14041;BME280;7095;51.388;6.196;2023-12-28T12:50:21;53590.56;;;-145.32;100.00
14041;BME280;7095;51.388;6.196;2023-12-28T12:52:49;53588.56;;;-145.32;100.00